Terminal Aerodrome Forecast
Issued by NWS

Home | Current Version | Previous Version | Text Only | Print | Product List | Glossary On
Versions: 1 2 3 4 5 6 7 8 9 10 11 12 13 14 15 16 17 18 19
000
FTUS45 KGJT 291127
TAFEGE
TAF
KEGE 291127Z 2912/3012 VRB03KT P6SM VCSH FEW050 BKN120
     FM291400 03004KT P6SM OVC080
     FM292000 34005KT P6SM BKN060
     FM292300 03009KT P6SM BKN060
     FM300200 06004KT P6SM SCT060
      AMD LTD TO CLD VIS AND WIND TIL 291400=

USA.gov is the U.S. government's official web portal to all federal, state and local government web resources and services.